sensor_id;sensor_type;location;lat;lon;timestamp;P1;P2;P0
50787;PMS5003;36756;50.846;20.632;2024-03-22T00:00:18;26;24;16
50787;PMS5003;36756;50.846;20.632;2024-03-22T00:10:10;35;28;16
50787;PMS5003;36756;50.846;20.632;2024-03-22T00:20:09;35;28;16
50787;PMS5003;36756;50.846;20.632;2024-03-22T00:30:08;35;28;16
50787;PMS5003;36756;50.846;20.632;2024-03-22T00:40:05;28;25;18
50787;PMS5003;36756;50.846;20.632;2024-03-22T00:50:14;28;25;18
50787;PMS5003;36756;50.846;20.632;2024-03-22T01:00:08;28;25;18
50787;PMS5003;36756;50.846;20.632;2024-03-22T01:10:14;35;29;17
50787;PMS5003;36756;50.846;20.632;2024-03-22T01:20:11;35;29;17
50787;PMS5003;36756;50.846;20.632;2024-03-22T01:30:14;35;29;17
50787;PMS5003;36756;50.846;20.632;2024-03-22T01:40:10;31;28;18
50787;PMS5003;36756;50.846;20.632;2024-03-22T01:50:15;31;28;18
50787;PMS5003;36756;50.846;20.632;2024-03-22T02:00:16;31;28;18
50787;PMS5003;36756;50.846;20.632;2024-03-22T02:10:11;41;35;24
50787;PMS5003;36756;50.846;20.632;2024-03-22T02:20:02;41;35;24
50787;PMS5003;36756;50.846;20.632;2024-03-22T02:30:11;41;35;24
50787;PMS5003;36756;50.846;20.632;2024-03-22T02:40:14;37;27;17
50787;PMS5003;36756;50.846;20.632;2024-03-22T02:50:13;37;27;17
50787;PMS5003;36756;50.846;20.632;2024-03-22T03:00:13;37;27;17
50787;PMS5003;36756;50.846;20.632;2024-03-22T03:10:09;41;35;21
50787;PMS5003;36756;50.846;20.632;2024-03-22T03:20:15;41;35;21
50787;PMS5003;36756;50.846;20.632;2024-03-22T03:30:01;41;35;21
50787;PMS5003;36756;50.846;20.632;2024-03-22T03:40:09;42;34;21
50787;PMS5003;36756;50.846;20.632;2024-03-22T03:50:11;42;34;21
50787;PMS5003;36756;50.846;20.632;2024-03-22T04:00:11;42;34;21
50787;PMS5003;36756;50.846;20.632;2024-03-22T04:10:09;40;33;21
50787;PMS5003;36756;50.846;20.632;2024-03-22T04:20:02;40;33;21
50787;PMS5003;36756;50.846;20.632;2024-03-22T04:30:16;40;33;21
50787;PMS5003;36756;50.846;20.632;2024-03-22T04:40:05;49;38;24
50787;PMS5003;36756;50.846;20.632;2024-03-22T04:50:04;49;38;24
50787;PMS5003;36756;50.846;20.632;2024-03-22T05:00:16;49;38;24
50787;PMS5003;36756;50.846;20.632;2024-03-22T05:10:11;49;38;24
50787;PMS5003;36756;50.846;20.632;2024-03-22T05:20:13;49;38;24
50787;PMS5003;36756;50.846;20.632;2024-03-22T05:30:13;49;38;24
50787;PMS5003;36756;50.846;20.632;2024-03-22T05:40:21;53;39;24
50787;PMS5003;36756;50.846;20.632;2024-03-22T05:50:16;53;39;24
50787;PMS5003;36756;50.846;20.632;2024-03-22T06:00:09;53;39;24
50787;PMS5003;36756;50.846;20.632;2024-03-22T06:10:07;80;67;46
50787;PMS5003;36756;50.846;20.632;2024-03-22T06:20:10;80;67;46
50787;PMS5003;36756;50.846;20.632;2024-03-22T06:30:07;80;67;46
50787;PMS5003;36756;50.846;20.632;2024-03-22T06:40:16;44;33;23
50787;PMS5003;36756;50.846;20.632;2024-03-22T06:50:07;44;33;23
50787;PMS5003;36756;50.846;20.632;2024-03-22T07:00:19;44;33;23
50787;PMS5003;36756;50.846;20.632;2024-03-22T07:10:02;37;32;21
50787;PMS5003;36756;50.846;20.632;2024-03-22T07:20:10;37;32;21
50787;PMS5003;36756;50.846;20.632;2024-03-22T07:30:07;37;32;21
50787;PMS5003;36756;50.846;20.632;2024-03-22T07:40:10;31;26;20
50787;PMS5003;36756;50.846;20.632;2024-03-22T07:50:08;31;26;20
50787;PMS5003;36756;50.846;20.632;2024-03-22T08:00:15;31;26;20
50787;PMS5003;36756;50.846;20.632;2024-03-22T08:10:10;45;36;22
50787;PMS5003;36756;50.846;20.632;2024-03-22T08:20:05;45;36;22
50787;PMS5003;36756;50.846;20.632;2024-03-22T08:30:17;45;36;22
50787;PMS5003;36756;50.846;20.632;2024-03-22T08:40:16;28;23;13
50787;PMS5003;36756;50.846;20.632;2024-03-22T08:50:13;28;23;13
50787;PMS5003;36756;50.846;20.632;2024-03-22T09:00:21;28;23;13
50787;PMS5003;36756;50.846;20.632;2024-03-22T09:10:12;18;16;11
50787;PMS5003;36756;50.846;20.632;2024-03-22T09:20:02;18;16;11
50787;PMS5003;36756;50.846;20.632;2024-03-22T09:30:20;18;16;11
50787;PMS5003;36756;50.846;20.632;2024-03-22T09:40:08;104;87;52
50787;PMS5003;36756;50.846;20.632;2024-03-22T09:50:20;104;87;52
50787;PMS5003;36756;50.846;20.632;2024-03-22T10:00:19;104;87;52
50787;PMS5003;36756;50.846;20.632;2024-03-22T10:10:15;17;16;9
50787;PMS5003;36756;50.846;20.632;2024-03-22T10:20:14;17;16;9
50787;PMS5003;36756;50.846;20.632;2024-03-22T10:30:19;17;16;9
50787;PMS5003;36756;50.846;20.632;2024-03-22T10:40:14;14;11;7
50787;PMS5003;36756;50.846;20.632;2024-03-22T10:50:07;14;11;7
50787;PMS5003;36756;50.846;20.632;2024-03-22T11:00:04;14;11;7
50787;PMS5003;36756;50.846;20.632;2024-03-22T11:20:02;10;9;5
50787;PMS5003;36756;50.846;20.632;2024-03-22T11:30:09;10;9;5
50787;PMS5003;36756;50.846;20.632;2024-03-22T11:40:12;5;5;3
50787;PMS5003;36756;50.846;20.632;2024-03-22T11:50:09;5;5;3
50787;PMS5003;36756;50.846;20.632;2024-03-22T12:00:25;5;5;3
50787;PMS5003;36756;50.846;20.632;2024-03-22T12:10:18;11;10;5
50787;PMS5003;36756;50.846;20.632;2024-03-22T12:20:05;11;10;5
50787;PMS5003;36756;50.846;20.632;2024-03-22T12:30:16;11;10;5
50787;PMS5003;36756;50.846;20.632;2024-03-22T12:40:17;11;9;6
50787;PMS5003;36756;50.846;20.632;2024-03-22T12:50:13;11;9;6
50787;PMS5003;36756;50.846;20.632;2024-03-22T13:00:02;11;9;6
50787;PMS5003;36756;50.846;20.632;2024-03-22T13:10:15;11;9;6
50787;PMS5003;36756;50.846;20.632;2024-03-22T13:20:18;11;9;6
50787;PMS5003;36756;50.846;20.632;2024-03-22T13:30:10;11;9;6
50787;PMS5003;36756;50.846;20.632;2024-03-22T13:40:18;11;9;5
50787;PMS5003;36756;50.846;20.632;2024-03-22T13:50:07;11;9;5
50787;PMS5003;36756;50.846;20.632;2024-03-22T14:00:07;11;9;5
50787;PMS5003;36756;50.846;20.632;2024-03-22T14:10:07;7;7;4
50787;PMS5003;36756;50.846;20.632;2024-03-22T14:20:17;7;7;4
50787;PMS5003;36756;50.846;20.632;2024-03-22T14:30:20;7;7;4
50787;PMS5003;36756;50.846;20.632;2024-03-22T14:40:19;12;12;8
50787;PMS5003;36756;50.846;20.632;2024-03-22T14:50:07;12;12;8
50787;PMS5003;36756;50.846;20.632;2024-03-22T15:00:11;12;12;8
50787;PMS5003;36756;50.846;20.632;2024-03-22T15:20:16;12;10;7
50787;PMS5003;36756;50.846;20.632;2024-03-22T15:30:03;12;10;7
50787;PMS5003;36756;50.846;20.632;2024-03-22T15:50:10;11;9;5
50787;PMS5003;36756;50.846;20.632;2024-03-22T16:00:03;11;9;5
50787;PMS5003;36756;50.846;20.632;2024-03-22T16:20:14;14;14;9
50787;PMS5003;36756;50.846;20.632;2024-03-22T16:30:04;14;14;9
50787;PMS5003;36756;50.846;20.632;2024-03-22T16:40:12;14;14;9
50787;PMS5003;36756;50.846;20.632;2024-03-22T16:50:03;17;15;10
50787;PMS5003;36756;50.846;20.632;2024-03-22T17:00:08;17;15;10
50787;PMS5003;36756;50.846;20.632;2024-03-22T17:10:01;17;15;10
50787;PMS5003;36756;50.846;20.632;2024-03-22T17:20:14;18;14;10
50787;PMS5003;36756;50.846;20.632;2024-03-22T17:30:02;18;14;10
50787;PMS5003;36756;50.846;20.632;2024-03-22T17:40:12;18;14;10
50787;PMS5003;36756;50.846;20.632;2024-03-22T17:50:11;15;14;10
50787;PMS5003;36756;50.846;20.632;2024-03-22T18:00:17;15;14;10
50787;PMS5003;36756;50.846;20.632;2024-03-22T18:10:10;15;14;10
50787;PMS5003;36756;50.846;20.632;2024-03-22T18:20:25;21;20;13
50787;PMS5003;36756;50.846;20.632;2024-03-22T18:30:13;21;20;13
50787;PMS5003;36756;50.846;20.632;2024-03-22T18:40:16;21;20;13
50787;PMS5003;36756;50.846;20.632;2024-03-22T18:50:17;27;24;17
50787;PMS5003;36756;50.846;20.632;2024-03-22T19:00:09;27;24;17
50787;PMS5003;36756;50.846;20.632;2024-03-22T19:10:05;27;24;17
50787;PMS5003;36756;50.846;20.632;2024-03-22T19:20:10;31;26;18
50787;PMS5003;36756;50.846;20.632;2024-03-22T19:30:21;31;26;18
50787;PMS5003;36756;50.846;20.632;2024-03-22T19:40:15;31;26;18
50787;PMS5003;36756;50.846;20.632;2024-03-22T19:50:16;38;31;18
50787;PMS5003;36756;50.846;20.632;2024-03-22T20:00:14;38;31;18
50787;PMS5003;36756;50.846;20.632;2024-03-22T20:10:03;38;31;18
50787;PMS5003;36756;50.846;20.632;2024-03-22T20:20:04;44;34;21
50787;PMS5003;36756;50.846;20.632;2024-03-22T20:30:10;44;34;21
